NOZ1939 LDSP-ENBR
Flight info
| Callsign | NOZ1939 |
|---|---|
| Flight time | 2h 40m |
| Altitude | 36000 |
| Route | SIRMI DCT KOREX DCT SIMBA DCT ABGUS DCT DOSUR DCT BADAB |
| Aircraft | B738/M-SDE2E3FGHIRWXY/LB1 |
Departure
| Time | 2026-05-07 18:17 |
|---|---|
| Airport | Split Saint Jerome Airport (LDSP) |
Arrival
| Time | 2026-05-07 20:57 |
|---|---|
| Airport | Bergen Airport, Flesland (ENBR) |
| Time | Latitude | Longitude | Altitude | Speed | Heading |
|---|---|---|---|---|---|
| 2026-05-07 17:46 | 43.53657 | 16.29748 | 67 ft | 0 kts | 94° |
| 2026-05-07 18:13 | 43.53662 | 16.29751 | 63 ft | 1 kts | 34° |
| 2026-05-07 18:13 | 43.53669 | 16.29738 | 67 ft | 3 kts | 289° |
| 2026-05-07 18:14 | 43.53676 | 16.29691 | 60 ft | 7 kts | 281° |
| 2026-05-07 18:14 | 43.53687 | 16.29615 | 70 ft | 9 kts | 281° |
| 2026-05-07 18:14 | 43.53695 | 16.29526 | 73 ft | 10 kts | 271° |
| 2026-05-07 18:14 | 43.53674 | 16.29407 | 73 ft | 18 kts | 240° |
| 2026-05-07 18:15 | 43.53597 | 16.29262 | 84 ft | 19 kts | 232° |
| 2026-05-07 18:15 | 43.53518 | 16.29121 | 86 ft | 18 kts | 232° |
| 2026-05-07 18:15 | 43.53441 | 16.28984 | 86 ft | 18 kts | 232° |
| 2026-05-07 18:15 | 43.53366 | 16.28850 | 86 ft | 18 kts | 232° |
| 2026-05-07 18:16 | 43.53283 | 16.28704 | 86 ft | 20 kts | 231° |
| 2026-05-07 18:16 | 43.53202 | 16.28609 | 87 ft | 10 kts | 228° |
| 2026-05-07 18:16 | 43.53223 | 16.28584 | 84 ft | 7 kts | 50° |
| 2026-05-07 18:16 | 43.53225 | 16.28588 | 83 ft | 0 kts | 53° |
| 2026-05-07 18:17 | 43.53309 | 16.28744 | 86 ft | 53 kts | 53° |
| 2026-05-07 18:17 | 43.53667 | 16.29386 | 72 ft | 117 kts | 52° |
| 2026-05-07 18:17 | 43.54267 | 16.30478 | 125 ft | 163 kts | 53° |
| 2026-05-07 18:17 | 43.54936 | 16.31729 | 769 ft | 164 kts | 58° |
| 2026-05-07 18:18 | 43.55445 | 16.33143 | 1444 ft | 167 kts | 76° |
| 2026-05-07 18:18 | 43.55281 | 16.34704 | 1943 ft | 178 kts | 126° |
| 2026-05-07 18:18 | 43.54287 | 16.35766 | 2493 ft | 186 kts | 153° |
| 2026-05-07 18:18 | 43.53159 | 16.36663 | 3187 ft | 188 kts | 150° |
| 2026-05-07 18:19 | 43.51990 | 16.37493 | 3880 ft | 190 kts | 154° |
| 2026-05-07 18:19 | 43.50805 | 16.38314 | 4575 ft | 191 kts | 154° |
| 2026-05-07 18:19 | 43.49623 | 16.39159 | 5218 ft | 192 kts | 154° |
| 2026-05-07 18:19 | 43.48442 | 16.40005 | 5453 ft | 194 kts | 154° |
| 2026-05-07 18:20 | 43.47302 | 16.40984 | 5448 ft | 197 kts | 134° |
| 2026-05-07 18:20 | 43.46806 | 16.42788 | 5582 ft | 217 kts | 92° |
| 2026-05-07 18:20 | 43.47203 | 16.44874 | 5737 ft | 239 kts | 61° |
| 2026-05-07 18:20 | 43.48395 | 16.46563 | 5921 ft | 257 kts | 30° |
| 2026-05-07 18:21 | 43.50131 | 16.47166 | 6279 ft | 263 kts | 356° |
| 2026-05-07 18:21 | 43.51332 | 16.46933 | 6604 ft | 264 kts | 347° |
| 2026-05-07 18:21 | 43.53133 | 16.46416 | 7068 ft | 267 kts | 346° |
| 2026-05-07 18:21 | 43.55575 | 16.45697 | 7705 ft | 271 kts | 346° |
| 2026-05-07 18:22 | 43.57412 | 16.45173 | 8123 ft | 278 kts | 347° |
| 2026-05-07 18:22 | 43.58062 | 16.44990 | 8155 ft | 286 kts | 347° |
| 2026-05-07 18:22 | 43.61420 | 16.44079 | 9027 ft | 300 kts | 347° |
| 2026-05-07 18:22 | 43.63473 | 16.43539 | 9716 ft | 302 kts | 347° |
| 2026-05-07 18:23 | 43.64849 | 16.43182 | 10172 ft | 304 kts | 347° |
| 2026-05-07 18:23 | 43.67731 | 16.42445 | 10551 ft | 329 kts | 347° |
| 2026-05-07 18:23 | 43.69255 | 16.42054 | 10679 ft | 343 kts | 347° |
| 2026-05-07 18:23 | 43.71647 | 16.41441 | 11022 ft | 355 kts | 347° |
| 2026-05-07 18:24 | 43.74892 | 16.40619 | 11859 ft | 360 kts | 347° |
| 2026-05-07 18:24 | 43.77354 | 16.39995 | 12590 ft | 360 kts | 346° |
| 2026-05-07 18:24 | 43.79828 | 16.39366 | 13248 ft | 364 kts | 346° |
| 2026-05-07 18:24 | 43.81484 | 16.38945 | 13676 ft | 367 kts | 346° |
| 2026-05-07 18:25 | 43.84003 | 16.38305 | 14344 ft | 370 kts | 346° |
| 2026-05-07 18:25 | 43.86546 | 16.37659 | 15000 ft | 374 kts | 346° |
| 2026-05-07 18:25 | 43.89117 | 16.37005 | 15643 ft | 377 kts | 346° |
| 2026-05-07 18:25 | 43.91712 | 16.36346 | 16273 ft | 381 kts | 346° |
| 2026-05-07 18:26 | 43.94329 | 16.35680 | 16861 ft | 385 kts | 345° |
| 2026-05-07 18:26 | 43.96970 | 16.35008 | 17484 ft | 387 kts | 345° |
| 2026-05-07 18:26 | 43.99630 | 16.34330 | 18043 ft | 391 kts | 345° |
| 2026-05-07 18:26 | 44.02318 | 16.33644 | 18582 ft | 394 kts | 345° |
| 2026-05-07 18:27 | 44.05025 | 16.32953 | 19146 ft | 397 kts | 345° |
| 2026-05-07 18:27 | 44.07722 | 16.32263 | 19694 ft | 401 kts | 345° |
| 2026-05-07 18:27 | 44.10471 | 16.31560 | 20040 ft | 401 kts | 344° |
| 2026-05-07 18:27 | 44.13208 | 16.30828 | 20037 ft | 399 kts | 341° |
| 2026-05-07 18:28 | 44.15831 | 16.29615 | 20052 ft | 396 kts | 331° |
| 2026-05-07 18:28 | 44.18236 | 16.27811 | 20045 ft | 391 kts | 323° |
| 2026-05-07 18:28 | 44.20546 | 16.25825 | 20045 ft | 391 kts | 322° |
| 2026-05-07 18:28 | 44.22852 | 16.23815 | 20029 ft | 391 kts | 322° |
| 2026-05-07 18:29 | 44.25160 | 16.21805 | 20046 ft | 391 kts | 322° |
| 2026-05-07 18:29 | 44.27469 | 16.19804 | 20038 ft | 391 kts | 323° |
| 2026-05-07 18:29 | 44.29754 | 16.17831 | 20016 ft | 391 kts | 323° |
| 2026-05-07 18:29 | 44.32065 | 16.15845 | 20037 ft | 390 kts | 323° |
| 2026-05-07 18:30 | 44.34377 | 16.13859 | 20045 ft | 389 kts | 323° |
| 2026-05-07 18:30 | 44.36682 | 16.11879 | 20034 ft | 390 kts | 323° |
| 2026-05-07 18:30 | 44.38992 | 16.09895 | 20019 ft | 389 kts | 323° |
| 2026-05-07 18:30 | 44.41297 | 16.07913 | 20040 ft | 389 kts | 323° |
| 2026-05-07 18:31 | 44.43600 | 16.05933 | 20030 ft | 389 kts | 323° |
| 2026-05-07 18:31 | 44.45902 | 16.03951 | 20037 ft | 389 kts | 323° |
| 2026-05-07 18:31 | 44.48177 | 16.01992 | 20028 ft | 389 kts | 323° |
| 2026-05-07 18:31 | 44.50476 | 16.00008 | 20035 ft | 388 kts | 323° |
| 2026-05-07 18:32 | 44.52773 | 15.98025 | 20040 ft | 388 kts | 323° |
| 2026-05-07 18:32 | 44.55069 | 15.96040 | 20046 ft | 388 kts | 323° |
| 2026-05-07 18:32 | 44.57370 | 15.94049 | 20038 ft | 389 kts | 323° |
| 2026-05-07 18:32 | 44.59680 | 15.92048 | 20036 ft | 390 kts | 323° |
| 2026-05-07 18:33 | 44.61987 | 15.90048 | 20033 ft | 391 kts | 323° |
| 2026-05-07 18:33 | 44.64303 | 15.88040 | 20016 ft | 390 kts | 323° |
| 2026-05-07 18:33 | 44.66606 | 15.86042 | 20020 ft | 389 kts | 323° |
| 2026-05-07 18:33 | 44.68904 | 15.84044 | 20038 ft | 388 kts | 323° |
| 2026-05-07 18:34 | 44.71201 | 15.82044 | 20032 ft | 389 kts | 323° |
| 2026-05-07 18:34 | 44.73501 | 15.80043 | 20039 ft | 389 kts | 323° |
| 2026-05-07 18:34 | 44.75774 | 15.78061 | 20005 ft | 389 kts | 323° |
| 2026-05-07 18:34 | 44.78087 | 15.76101 | 20018 ft | 388 kts | 325° |
| 2026-05-07 18:35 | 44.80454 | 15.74285 | 20008 ft | 388 kts | 327° |
| 2026-05-07 18:35 | 44.82841 | 15.72525 | 20034 ft | 388 kts | 327° |
| 2026-05-07 18:35 | 44.85246 | 15.70770 | 20011 ft | 389 kts | 327° |
| 2026-05-07 18:35 | 44.87649 | 15.69016 | 20006 ft | 389 kts | 327° |
| 2026-05-07 18:36 | 44.90052 | 15.67253 | 20029 ft | 390 kts | 327° |
| 2026-05-07 18:36 | 44.92465 | 15.65471 | 20050 ft | 394 kts | 327° |
| 2026-05-07 18:36 | 44.94911 | 15.63655 | 20433 ft | 400 kts | 327° |
| 2026-05-07 18:36 | 44.97337 | 15.61853 | 21101 ft | 398 kts | 327° |
| 2026-05-07 18:37 | 44.99788 | 15.60027 | 21648 ft | 400 kts | 327° |
| 2026-05-07 18:37 | 45.02255 | 15.58185 | 22091 ft | 403 kts | 326° |
| 2026-05-07 18:37 | 45.04746 | 15.56320 | 22541 ft | 407 kts | 326° |
| 2026-05-07 18:37 | 45.07256 | 15.54440 | 23026 ft | 410 kts | 326° |
| 2026-05-07 18:38 | 45.09779 | 15.52549 | 23502 ft | 412 kts | 326° |
| 2026-05-07 18:38 | 45.12318 | 15.50644 | 23945 ft | 414 kts | 326° |
| 2026-05-07 18:38 | 45.14878 | 15.48721 | 24383 ft | 417 kts | 326° |
| 2026-05-07 18:38 | 45.17447 | 15.46791 | 24815 ft | 419 kts | 326° |
| 2026-05-07 18:39 | 45.19994 | 15.44875 | 25241 ft | 421 kts | 326° |
| 2026-05-07 18:39 | 45.22587 | 15.42920 | 25628 ft | 424 kts | 326° |
| 2026-05-07 18:39 | 45.25199 | 15.40948 | 26018 ft | 426 kts | 325° |
| 2026-05-07 18:39 | 45.27817 | 15.38970 | 26386 ft | 428 kts | 325° |
| 2026-05-07 18:40 | 45.30458 | 15.36974 | 26759 ft | 430 kts | 325° |
| 2026-05-07 18:40 | 45.33105 | 15.34973 | 27144 ft | 432 kts | 325° |
| 2026-05-07 18:40 | 45.35761 | 15.32962 | 27502 ft | 433 kts | 325° |
| 2026-05-07 18:40 | 45.38425 | 15.30942 | 27830 ft | 435 kts | 325° |
| 2026-05-07 18:41 | 45.41069 | 15.28935 | 28153 ft | 437 kts | 325° |
| 2026-05-07 18:41 | 45.43759 | 15.26891 | 28475 ft | 439 kts | 325° |
| 2026-05-07 18:41 | 45.46455 | 15.24839 | 28774 ft | 441 kts | 325° |
| 2026-05-07 18:41 | 45.49166 | 15.22776 | 29106 ft | 442 kts | 325° |
| 2026-05-07 18:42 | 45.51885 | 15.20703 | 29390 ft | 444 kts | 325° |
| 2026-05-07 18:42 | 45.54612 | 15.18622 | 29657 ft | 446 kts | 325° |
| 2026-05-07 18:42 | 45.57353 | 15.16526 | 29946 ft | 447 kts | 325° |
| 2026-05-07 18:42 | 45.60100 | 15.14425 | 30237 ft | 448 kts | 325° |
| 2026-05-07 18:43 | 45.62850 | 15.12320 | 30521 ft | 449 kts | 325° |
| 2026-05-07 18:43 | 45.65565 | 15.10241 | 30812 ft | 448 kts | 325° |
| 2026-05-07 18:43 | 45.68310 | 15.08138 | 31102 ft | 447 kts | 325° |
| 2026-05-07 18:43 | 45.71045 | 15.06038 | 31414 ft | 446 kts | 324° |
| 2026-05-07 18:44 | 45.73768 | 15.03945 | 31722 ft | 443 kts | 324° |
| 2026-05-07 18:44 | 45.76483 | 15.01854 | 31940 ft | 443 kts | 324° |
| 2026-05-07 18:44 | 45.79200 | 14.99759 | 32218 ft | 443 kts | 324° |
| 2026-05-07 18:44 | 45.81911 | 14.97666 | 32547 ft | 442 kts | 324° |
| 2026-05-07 18:45 | 45.84574 | 14.95611 | 32850 ft | 441 kts | 324° |
| 2026-05-07 18:45 | 45.87304 | 14.93497 | 33122 ft | 440 kts | 324° |
| 2026-05-07 18:45 | 45.89965 | 14.91436 | 33431 ft | 439 kts | 324° |
| 2026-05-07 18:45 | 45.92644 | 14.89360 | 33759 ft | 437 kts | 324° |
| 2026-05-07 18:46 | 45.95314 | 14.87289 | 34079 ft | 436 kts | 324° |
| 2026-05-07 18:46 | 45.97979 | 14.85218 | 34316 ft | 436 kts | 324° |
| 2026-05-07 18:46 | 46.00646 | 14.83141 | 34519 ft | 437 kts | 324° |
| 2026-05-07 18:46 | 46.03325 | 14.81053 | 34656 ft | 439 kts | 324° |
| 2026-05-07 18:47 | 46.06023 | 14.78946 | 34700 ft | 444 kts | 324° |
| 2026-05-07 18:47 | 46.08738 | 14.76825 | 34937 ft | 443 kts | 324° |
| 2026-05-07 18:47 | 46.11444 | 14.74713 | 35272 ft | 441 kts | 324° |
| 2026-05-07 18:47 | 46.14097 | 14.72640 | 35487 ft | 440 kts | 324° |
| 2026-05-07 18:48 | 46.16797 | 14.70526 | 35627 ft | 442 kts | 325° |
| 2026-05-07 18:48 | 46.19503 | 14.68404 | 35818 ft | 442 kts | 325° |
| 2026-05-07 18:48 | 46.22203 | 14.66286 | 36012 ft | 443 kts | 324° |
| 2026-05-07 18:49 | 46.27655 | 14.61996 | 35995 ft | 448 kts | 325° |
| 2026-05-07 18:49 | 46.33095 | 14.57715 | 35963 ft | 439 kts | 325° |
| 2026-05-07 18:50 | 46.38434 | 14.53501 | 36016 ft | 438 kts | 324° |
| 2026-05-07 18:50 | 46.43774 | 14.49267 | 36015 ft | 442 kts | 325° |
| 2026-05-07 18:51 | 46.49195 | 14.44965 | 36017 ft | 445 kts | 325° |
| 2026-05-07 18:51 | 46.54645 | 14.40634 | 36025 ft | 447 kts | 325° |
| 2026-05-07 18:52 | 46.60116 | 14.36274 | 36021 ft | 449 kts | 325° |
| 2026-05-07 18:52 | 46.65599 | 14.31894 | 36012 ft | 449 kts | 325° |
| 2026-05-07 18:53 | 46.71041 | 14.27539 | 36022 ft | 449 kts | 325° |
| 2026-05-07 18:53 | 46.76512 | 14.23150 | 36013 ft | 448 kts | 325° |
| 2026-05-07 18:54 | 46.81954 | 14.18775 | 36022 ft | 446 kts | 325° |
| 2026-05-07 18:54 | 46.87381 | 14.14399 | 36018 ft | 445 kts | 325° |
| 2026-05-07 18:55 | 46.92751 | 14.10060 | 36028 ft | 444 kts | 325° |
| 2026-05-07 18:55 | 46.98151 | 14.05683 | 36025 ft | 444 kts | 325° |
| 2026-05-07 18:56 | 47.03553 | 14.01296 | 36032 ft | 444 kts | 325° |
| 2026-05-07 18:56 | 47.08961 | 13.96896 | 36029 ft | 445 kts | 325° |
| 2026-05-07 18:57 | 47.14342 | 13.92507 | 36034 ft | 446 kts | 325° |
| 2026-05-07 18:57 | 47.19766 | 13.88070 | 36029 ft | 446 kts | 326° |
| 2026-05-07 18:58 | 47.25203 | 13.83613 | 36019 ft | 448 kts | 325° |
| 2026-05-07 18:58 | 47.30645 | 13.79142 | 36024 ft | 449 kts | 326° |
| 2026-05-07 18:59 | 47.36073 | 13.74672 | 36018 ft | 450 kts | 326° |
| 2026-05-07 18:59 | 47.41524 | 13.70174 | 36036 ft | 449 kts | 326° |
| 2026-05-07 19:00 | 47.46977 | 13.65662 | 36030 ft | 450 kts | 326° |
| 2026-05-07 19:00 | 47.52438 | 13.61134 | 36025 ft | 450 kts | 326° |
| 2026-05-07 19:01 | 47.57852 | 13.56633 | 36057 ft | 449 kts | 326° |
| 2026-05-07 19:01 | 47.63313 | 13.52079 | 36036 ft | 452 kts | 326° |
| 2026-05-07 19:02 | 47.68795 | 13.47498 | 36054 ft | 453 kts | 326° |
| 2026-05-07 19:02 | 47.74290 | 13.42897 | 36041 ft | 454 kts | 326° |
| 2026-05-07 19:03 | 47.79794 | 13.38275 | 36051 ft | 455 kts | 326° |
| 2026-05-07 19:03 | 47.85284 | 13.33656 | 36036 ft | 456 kts | 326° |
| 2026-05-07 19:04 | 47.90794 | 13.29009 | 36049 ft | 454 kts | 326° |
| 2026-05-07 19:04 | 47.96281 | 13.24368 | 36040 ft | 453 kts | 326° |
| 2026-05-07 19:05 | 48.01747 | 13.19731 | 36051 ft | 451 kts | 326° |
| 2026-05-07 19:05 | 48.07185 | 13.15111 | 36056 ft | 449 kts | 326° |
| 2026-05-07 19:06 | 48.12607 | 13.10491 | 36054 ft | 448 kts | 326° |
| 2026-05-07 19:06 | 48.20703 | 13.03570 | 36068 ft | 452 kts | 326° |
| 2026-05-07 19:07 | 48.26507 | 12.99623 | 36069 ft | 465 kts | 337° |
| 2026-05-07 19:07 | 48.32705 | 12.96590 | 36067 ft | 470 kts | 338° |
| 2026-05-07 19:08 | 48.38911 | 12.93595 | 36056 ft | 472 kts | 338° |
| 2026-05-07 19:08 | 48.45157 | 12.90509 | 36054 ft | 472 kts | 338° |
| 2026-05-07 19:09 | 48.51382 | 12.87383 | 36053 ft | 471 kts | 338° |
| 2026-05-07 19:09 | 48.57579 | 12.84247 | 36051 ft | 468 kts | 338° |
| 2026-05-07 19:10 | 48.63744 | 12.81125 | 36052 ft | 466 kts | 338° |
| 2026-05-07 19:10 | 48.69837 | 12.78032 | 36064 ft | 464 kts | 338° |
| 2026-05-07 19:11 | 48.75945 | 12.74924 | 36057 ft | 462 kts | 338° |
| 2026-05-07 19:11 | 48.82034 | 12.71817 | 36054 ft | 461 kts | 338° |
| 2026-05-07 19:12 | 48.88108 | 12.68709 | 36060 ft | 460 kts | 338° |
| 2026-05-07 19:12 | 48.94183 | 12.65594 | 36062 ft | 461 kts | 338° |
| 2026-05-07 19:13 | 49.00260 | 12.62469 | 36052 ft | 461 kts | 338° |
| 2026-05-07 19:13 | 49.06298 | 12.59353 | 36058 ft | 462 kts | 338° |
| 2026-05-07 19:14 | 49.12390 | 12.56206 | 36063 ft | 462 kts | 338° |
| 2026-05-07 19:14 | 49.18485 | 12.53050 | 36054 ft | 463 kts | 338° |
| 2026-05-07 19:15 | 49.24601 | 12.49873 | 36058 ft | 464 kts | 338° |
| 2026-05-07 19:15 | 49.30714 | 12.46693 | 36053 ft | 464 kts | 338° |
| 2026-05-07 19:16 | 49.36793 | 12.43516 | 36045 ft | 465 kts | 338° |
| 2026-05-07 19:16 | 49.42930 | 12.40301 | 36047 ft | 466 kts | 338° |
| 2026-05-07 19:17 | 49.49065 | 12.37081 | 36036 ft | 466 kts | 338° |
| 2026-05-07 19:17 | 49.55199 | 12.33852 | 36035 ft | 466 kts | 338° |
| 2026-05-07 19:18 | 49.61411 | 12.30574 | 36036 ft | 465 kts | 338° |
| 2026-05-07 19:18 | 49.67433 | 12.27388 | 36043 ft | 464 kts | 338° |
| 2026-05-07 19:19 | 49.73490 | 12.24175 | 36036 ft | 463 kts | 339° |
| 2026-05-07 19:19 | 49.79571 | 12.20940 | 36037 ft | 462 kts | 338° |
| 2026-05-07 19:20 | 49.85641 | 12.17701 | 36034 ft | 461 kts | 339° |
| 2026-05-07 19:20 | 49.91704 | 12.14459 | 36036 ft | 460 kts | 339° |
| 2026-05-07 19:21 | 49.97750 | 12.11217 | 36033 ft | 460 kts | 339° |
| 2026-05-07 19:21 | 50.03796 | 12.07966 | 36033 ft | 460 kts | 338° |
| 2026-05-07 19:22 | 50.09839 | 12.04707 | 36044 ft | 460 kts | 338° |
| 2026-05-07 19:22 | 50.15841 | 12.01461 | 36046 ft | 460 kts | 338° |
| 2026-05-07 19:23 | 50.21895 | 11.98180 | 36046 ft | 461 kts | 338° |
| 2026-05-07 19:23 | 50.27956 | 11.94886 | 36050 ft | 461 kts | 338° |
| 2026-05-07 19:24 | 50.34021 | 11.91582 | 36052 ft | 462 kts | 338° |
| 2026-05-07 19:24 | 50.40085 | 11.88268 | 36048 ft | 462 kts | 338° |
| 2026-05-07 19:25 | 50.46113 | 11.84966 | 36046 ft | 462 kts | 338° |
| 2026-05-07 19:25 | 50.52182 | 11.81631 | 36053 ft | 462 kts | 338° |
| 2026-05-07 19:26 | 50.58246 | 11.78289 | 36059 ft | 461 kts | 338° |
| 2026-05-07 19:26 | 50.64299 | 11.74945 | 36055 ft | 461 kts | 338° |
| 2026-05-07 19:27 | 50.70349 | 11.71594 | 36066 ft | 460 kts | 339° |
| 2026-05-07 19:27 | 50.76392 | 11.68239 | 36071 ft | 461 kts | 339° |
| 2026-05-07 19:28 | 50.82400 | 11.64893 | 36082 ft | 461 kts | 339° |
| 2026-05-07 19:28 | 50.88441 | 11.61520 | 36085 ft | 461 kts | 339° |
| 2026-05-07 19:29 | 50.94502 | 11.58126 | 36089 ft | 462 kts | 339° |
| 2026-05-07 19:29 | 51.00555 | 11.54728 | 36095 ft | 462 kts | 339° |
| 2026-05-07 19:30 | 51.06611 | 11.51317 | 36091 ft | 462 kts | 339° |
| 2026-05-07 19:30 | 51.12670 | 11.47894 | 36096 ft | 462 kts | 339° |
| 2026-05-07 19:31 | 51.18679 | 11.44492 | 36102 ft | 461 kts | 339° |
| 2026-05-07 19:31 | 51.24728 | 11.41058 | 36099 ft | 461 kts | 339° |
| 2026-05-07 19:32 | 51.30767 | 11.37618 | 36102 ft | 461 kts | 339° |
| 2026-05-07 19:32 | 51.36806 | 11.34168 | 36101 ft | 461 kts | 339° |
| 2026-05-07 19:33 | 51.42844 | 11.30712 | 36102 ft | 460 kts | 339° |
| 2026-05-07 19:33 | 51.48870 | 11.27252 | 36105 ft | 460 kts | 339° |
| 2026-05-07 19:34 | 51.54860 | 11.23804 | 36099 ft | 460 kts | 339° |
| 2026-05-07 19:34 | 51.60890 | 11.20321 | 36101 ft | 460 kts | 339° |
| 2026-05-07 19:35 | 51.66914 | 11.16831 | 36104 ft | 460 kts | 339° |
| 2026-05-07 19:35 | 51.72941 | 11.13330 | 36100 ft | 460 kts | 339° |
| 2026-05-07 19:36 | 51.78963 | 11.09823 | 36103 ft | 460 kts | 339° |
| 2026-05-07 19:36 | 51.84933 | 11.06337 | 36101 ft | 460 kts | 339° |
| 2026-05-07 19:37 | 51.90958 | 11.02829 | 36102 ft | 460 kts | 339° |
| 2026-05-07 19:37 | 51.96982 | 10.99348 | 36105 ft | 460 kts | 339° |
| 2026-05-07 19:38 | 52.03009 | 10.95860 | 36102 ft | 460 kts | 339° |
| 2026-05-07 19:38 | 52.09036 | 10.92355 | 36101 ft | 460 kts | 339° |
| 2026-05-07 19:39 | 52.15020 | 10.88863 | 36102 ft | 460 kts | 339° |
| 2026-05-07 19:39 | 52.21038 | 10.85340 | 36099 ft | 460 kts | 339° |
| 2026-05-07 19:40 | 52.27049 | 10.81811 | 36104 ft | 459 kts | 339° |
| 2026-05-07 19:40 | 52.33061 | 10.78271 | 36103 ft | 459 kts | 339° |
| 2026-05-07 19:41 | 52.39068 | 10.74724 | 36102 ft | 459 kts | 339° |
| 2026-05-07 19:41 | 52.45068 | 10.71172 | 36103 ft | 458 kts | 339° |
| 2026-05-07 19:42 | 52.51025 | 10.67633 | 36100 ft | 458 kts | 339° |
| 2026-05-07 19:42 | 52.57021 | 10.64063 | 36102 ft | 458 kts | 339° |
| 2026-05-07 19:43 | 52.63006 | 10.60488 | 36100 ft | 458 kts | 339° |
| 2026-05-07 19:43 | 52.68988 | 10.56904 | 36103 ft | 457 kts | 339° |
| 2026-05-07 19:44 | 52.74970 | 10.53311 | 36100 ft | 458 kts | 339° |
| 2026-05-07 19:44 | 52.80951 | 10.49707 | 36101 ft | 457 kts | 339° |
| 2026-05-07 19:45 | 52.86890 | 10.46117 | 36102 ft | 458 kts | 339° |
| 2026-05-07 19:45 | 52.92873 | 10.42492 | 36102 ft | 458 kts | 339° |
| 2026-05-07 19:46 | 52.98859 | 10.38851 | 36098 ft | 458 kts | 339° |
| 2026-05-07 19:46 | 53.04831 | 10.35208 | 36104 ft | 458 kts | 339° |
| 2026-05-07 19:47 | 53.10811 | 10.31548 | 36107 ft | 458 kts | 339° |
| 2026-05-07 19:47 | 53.16792 | 10.27883 | 36111 ft | 458 kts | 339° |
| 2026-05-07 19:48 | 53.22727 | 10.24233 | 36111 ft | 458 kts | 339° |
| 2026-05-07 19:48 | 53.28699 | 10.20549 | 36118 ft | 458 kts | 339° |
| 2026-05-07 19:49 | 53.34674 | 10.16851 | 36123 ft | 458 kts | 339° |
| 2026-05-07 19:49 | 53.40651 | 10.13143 | 36118 ft | 458 kts | 339° |
| 2026-05-07 19:50 | 53.46619 | 10.09424 | 36130 ft | 458 kts | 339° |
| 2026-05-07 19:50 | 53.52548 | 10.05722 | 36129 ft | 458 kts | 339° |
| 2026-05-07 19:51 | 53.58524 | 10.01978 | 36128 ft | 458 kts | 339° |
| 2026-05-07 19:51 | 53.64493 | 9.98228 | 36136 ft | 458 kts | 339° |
| 2026-05-07 19:52 | 53.70459 | 9.94469 | 36125 ft | 458 kts | 339° |
| 2026-05-07 19:52 | 53.76432 | 9.90694 | 36129 ft | 458 kts | 339° |
| 2026-05-07 19:53 | 53.82398 | 9.86912 | 36132 ft | 458 kts | 339° |
| 2026-05-07 19:53 | 53.88322 | 9.83146 | 36128 ft | 457 kts | 339° |
| 2026-05-07 19:54 | 53.94276 | 9.79349 | 36138 ft | 457 kts | 339° |
| 2026-05-07 19:54 | 54.00230 | 9.75540 | 36129 ft | 457 kts | 339° |
| 2026-05-07 19:55 | 54.06177 | 9.71723 | 36142 ft | 457 kts | 339° |
| 2026-05-07 19:55 | 54.12081 | 9.67921 | 36146 ft | 457 kts | 339° |
| 2026-05-07 19:56 | 54.18024 | 9.64083 | 36133 ft | 457 kts | 339° |
| 2026-05-07 19:56 | 54.23967 | 9.60235 | 36130 ft | 457 kts | 339° |
| 2026-05-07 19:57 | 54.29903 | 9.56380 | 36130 ft | 456 kts | 339° |
| 2026-05-07 19:57 | 54.35837 | 9.52513 | 36129 ft | 456 kts | 339° |
| 2026-05-07 19:58 | 54.41767 | 9.48638 | 36136 ft | 457 kts | 339° |
| 2026-05-07 19:58 | 54.47661 | 9.44773 | 36127 ft | 456 kts | 339° |
| 2026-05-07 19:59 | 54.53597 | 9.40867 | 36134 ft | 456 kts | 339° |
| 2026-05-07 19:59 | 54.59522 | 9.36957 | 36135 ft | 456 kts | 339° |
| 2026-05-07 20:00 | 54.65446 | 9.33036 | 36126 ft | 456 kts | 339° |
| 2026-05-07 20:00 | 54.71365 | 9.29105 | 36131 ft | 456 kts | 339° |
| 2026-05-07 20:01 | 54.77281 | 9.25165 | 36130 ft | 455 kts | 339° |
| 2026-05-07 20:01 | 54.83153 | 9.21243 | 36131 ft | 455 kts | 339° |
| 2026-05-07 20:02 | 54.89060 | 9.17287 | 36145 ft | 455 kts | 339° |
| 2026-05-07 20:02 | 54.94967 | 9.13339 | 36136 ft | 455 kts | 339° |
| 2026-05-07 20:03 | 55.00867 | 9.09387 | 36147 ft | 454 kts | 339° |
| 2026-05-07 20:03 | 55.06760 | 9.05424 | 36147 ft | 454 kts | 339° |
| 2026-05-07 20:04 | 55.12608 | 9.01477 | 36149 ft | 453 kts | 339° |
| 2026-05-07 20:04 | 55.18481 | 8.97499 | 36149 ft | 453 kts | 339° |
| 2026-05-07 20:05 | 55.24351 | 8.93513 | 36157 ft | 452 kts | 338° |
| 2026-05-07 20:05 | 55.30186 | 8.89537 | 36158 ft | 453 kts | 338° |
| 2026-05-07 20:06 | 55.36054 | 8.85524 | 36158 ft | 453 kts | 338° |
| 2026-05-07 20:06 | 55.41919 | 8.81502 | 36156 ft | 453 kts | 338° |
| 2026-05-07 20:07 | 55.47792 | 8.77462 | 36158 ft | 453 kts | 338° |
| 2026-05-07 20:07 | 55.53661 | 8.73410 | 36158 ft | 453 kts | 338° |
| 2026-05-07 20:08 | 55.59530 | 8.69346 | 36155 ft | 453 kts | 338° |
| 2026-05-07 20:08 | 55.65358 | 8.65297 | 36157 ft | 453 kts | 338° |
| 2026-05-07 20:09 | 55.71218 | 8.61213 | 36156 ft | 453 kts | 338° |
| 2026-05-07 20:10 | 55.80006 | 8.55065 | 36155 ft | 452 kts | 338° |
| 2026-05-07 20:10 | 55.85820 | 8.50977 | 36158 ft | 452 kts | 338° |
| 2026-05-07 20:11 | 55.91647 | 8.46870 | 36156 ft | 452 kts | 338° |
| 2026-05-07 20:11 | 55.97488 | 8.42742 | 36161 ft | 451 kts | 338° |
| 2026-05-07 20:12 | 56.03328 | 8.38599 | 36156 ft | 451 kts | 338° |
| 2026-05-07 20:12 | 56.08174 | 8.35152 | 36154 ft | 451 kts | 338° |
| 2026-05-07 20:13 | 56.14945 | 8.30317 | 36158 ft | 451 kts | 338° |
| 2026-05-07 20:13 | 56.20769 | 8.26144 | 36156 ft | 451 kts | 338° |
| 2026-05-07 20:14 | 56.26588 | 8.21962 | 36158 ft | 450 kts | 338° |
| 2026-05-07 20:14 | 56.31422 | 8.18478 | 36156 ft | 450 kts | 338° |
| 2026-05-07 20:15 | 56.38182 | 8.13589 | 36158 ft | 450 kts | 338° |
| 2026-05-07 20:15 | 56.43993 | 8.09371 | 36157 ft | 450 kts | 337° |
| 2026-05-07 20:16 | 56.48815 | 8.05860 | 36158 ft | 450 kts | 337° |
| 2026-05-07 20:16 | 56.54626 | 8.01615 | 36160 ft | 450 kts | 337° |
| 2026-05-07 20:17 | 56.61379 | 7.96665 | 36155 ft | 451 kts | 337° |
| 2026-05-07 20:17 | 56.66247 | 7.93084 | 36158 ft | 450 kts | 337° |
| 2026-05-07 20:18 | 56.72016 | 7.88830 | 36160 ft | 450 kts | 336° |
| 2026-05-07 20:18 | 56.77817 | 7.84538 | 36156 ft | 450 kts | 336° |
| 2026-05-07 20:19 | 56.83618 | 7.80230 | 36156 ft | 450 kts | 336° |
| 2026-05-07 20:19 | 56.89414 | 7.75913 | 36157 ft | 450 kts | 336° |
| 2026-05-07 20:20 | 56.95170 | 7.71608 | 36156 ft | 450 kts | 336° |
| 2026-05-07 20:20 | 57.00956 | 7.67268 | 36158 ft | 449 kts | 336° |
| 2026-05-07 20:21 | 57.06730 | 7.62923 | 36151 ft | 448 kts | 336° |
| 2026-05-07 20:21 | 57.12494 | 7.58570 | 36156 ft | 448 kts | 335° |
| 2026-05-07 20:22 | 57.18257 | 7.54205 | 36156 ft | 447 kts | 335° |
| 2026-05-07 20:22 | 57.23966 | 7.49863 | 36157 ft | 447 kts | 335° |
| 2026-05-07 20:23 | 57.29709 | 7.45483 | 36156 ft | 446 kts | 335° |
| 2026-05-07 20:23 | 57.35448 | 7.41090 | 36157 ft | 446 kts | 335° |
| 2026-05-07 20:24 | 57.41182 | 7.36688 | 36155 ft | 446 kts | 335° |
| 2026-05-07 20:24 | 57.46913 | 7.32272 | 36158 ft | 446 kts | 335° |
| 2026-05-07 20:25 | 57.52596 | 7.27881 | 36157 ft | 446 kts | 335° |
| 2026-05-07 20:25 | 57.58322 | 7.23431 | 36154 ft | 446 kts | 335° |
| 2026-05-07 20:26 | 57.64044 | 7.18976 | 36159 ft | 446 kts | 335° |
| 2026-05-07 20:26 | 57.69730 | 7.14536 | 36156 ft | 446 kts | 335° |
| 2026-05-07 20:27 | 57.75452 | 7.10054 | 36156 ft | 446 kts | 334° |
| 2026-05-07 20:27 | 57.81175 | 7.05551 | 36149 ft | 446 kts | 334° |
| 2026-05-07 20:28 | 57.86896 | 7.01034 | 36147 ft | 446 kts | 334° |
| 2026-05-07 20:28 | 57.92617 | 6.96504 | 36150 ft | 446 kts | 334° |
| 2026-05-07 20:29 | 57.98302 | 6.91986 | 36147 ft | 447 kts | 334° |
| 2026-05-07 20:29 | 58.04029 | 6.87419 | 36150 ft | 446 kts | 333° |
| 2026-05-07 20:30 | 58.09748 | 6.82841 | 36149 ft | 446 kts | 333° |
| 2026-05-07 20:30 | 58.15463 | 6.78252 | 36144 ft | 446 kts | 333° |
| 2026-05-07 20:31 | 58.21134 | 6.73684 | 36149 ft | 446 kts | 333° |
| 2026-05-07 20:31 | 58.26841 | 6.69070 | 36144 ft | 445 kts | 333° |
| 2026-05-07 20:32 | 58.32537 | 6.64446 | 36149 ft | 445 kts | 333° |
| 2026-05-07 20:32 | 58.38226 | 6.59810 | 36144 ft | 444 kts | 333° |
| 2026-05-07 20:33 | 58.43867 | 6.55195 | 36142 ft | 444 kts | 333° |
| 2026-05-07 20:33 | 58.49539 | 6.50544 | 36146 ft | 444 kts | 333° |
| 2026-05-07 20:34 | 58.55215 | 6.45876 | 36008 ft | 446 kts | 333° |
| 2026-05-07 20:34 | 58.58087 | 6.43497 | 35428 ft | 450 kts | 333° |
| 2026-05-07 20:34 | 58.60952 | 6.41127 | 34775 ft | 448 kts | 333° |
| 2026-05-07 20:34 | 58.63772 | 6.38794 | 34138 ft | 447 kts | 333° |
| 2026-05-07 20:35 | 58.66627 | 6.36429 | 33448 ft | 446 kts | 332° |
| 2026-05-07 20:35 | 58.69478 | 6.34062 | 32742 ft | 446 kts | 332° |
| 2026-05-07 20:35 | 58.72328 | 6.31690 | 32012 ft | 447 kts | 332° |
| 2026-05-07 20:35 | 58.75177 | 6.29314 | 31261 ft | 447 kts | 332° |
| 2026-05-07 20:36 | 58.78030 | 6.26928 | 30532 ft | 447 kts | 332° |
| 2026-05-07 20:36 | 58.80866 | 6.24558 | 30010 ft | 441 kts | 332° |
| 2026-05-07 20:36 | 58.83647 | 6.22230 | 29465 ft | 436 kts | 332° |
| 2026-05-07 20:36 | 58.86414 | 6.19907 | 28914 ft | 431 kts | 332° |
| 2026-05-07 20:37 | 58.89147 | 6.17606 | 28377 ft | 426 kts | 332° |
| 2026-05-07 20:37 | 58.91847 | 6.15329 | 27852 ft | 421 kts | 332° |
| 2026-05-07 20:37 | 58.94484 | 6.13101 | 27313 ft | 417 kts | 332° |
| 2026-05-07 20:37 | 58.97128 | 6.10864 | 26795 ft | 412 kts | 332° |
| 2026-05-07 20:38 | 58.99742 | 6.08649 | 26276 ft | 408 kts | 332° |
| 2026-05-07 20:38 | 59.02331 | 6.06450 | 25745 ft | 404 kts | 332° |
| 2026-05-07 20:38 | 59.04896 | 6.04268 | 25227 ft | 400 kts | 332° |
| 2026-05-07 20:38 | 59.07450 | 6.02169 | 24714 ft | 399 kts | 336° |
| 2026-05-07 20:39 | 59.10128 | 6.00845 | 24368 ft | 395 kts | 343° |
| 2026-05-07 20:39 | 59.12821 | 5.99874 | 23853 ft | 392 kts | 345° |
| 2026-05-07 20:39 | 59.15499 | 5.98965 | 23361 ft | 389 kts | 345° |
| 2026-05-07 20:39 | 59.18122 | 5.98057 | 22870 ft | 386 kts | 345° |
| 2026-05-07 20:40 | 59.20747 | 5.97114 | 22372 ft | 383 kts | 344° |
| 2026-05-07 20:40 | 59.23356 | 5.96147 | 21878 ft | 380 kts | 344° |
| 2026-05-07 20:40 | 59.25942 | 5.95168 | 21387 ft | 377 kts | 344° |
| 2026-05-07 20:40 | 59.28510 | 5.94184 | 20889 ft | 375 kts | 344° |
| 2026-05-07 20:41 | 59.31064 | 5.93200 | 20396 ft | 373 kts | 344° |
| 2026-05-07 20:41 | 59.33600 | 5.92223 | 19907 ft | 371 kts | 344° |
| 2026-05-07 20:41 | 59.36125 | 5.91249 | 19417 ft | 368 kts | 344° |
| 2026-05-07 20:41 | 59.38598 | 5.90295 | 18938 ft | 366 kts | 344° |
| 2026-05-07 20:42 | 59.41088 | 5.89334 | 18461 ft | 364 kts | 344° |
| 2026-05-07 20:42 | 59.43573 | 5.88393 | 17961 ft | 363 kts | 346° |
| 2026-05-07 20:42 | 59.46085 | 5.87790 | 17420 ft | 365 kts | 351° |
| 2026-05-07 20:42 | 59.48618 | 5.87414 | 16934 ft | 364 kts | 352° |
| 2026-05-07 20:43 | 59.51136 | 5.87086 | 16464 ft | 362 kts | 352° |
| 2026-05-07 20:43 | 59.53643 | 5.86741 | 15986 ft | 360 kts | 352° |
| 2026-05-07 20:43 | 59.56140 | 5.86368 | 15505 ft | 359 kts | 352° |
| 2026-05-07 20:43 | 59.58621 | 5.85978 | 15033 ft | 356 kts | 352° |
| 2026-05-07 20:44 | 59.61046 | 5.85584 | 14580 ft | 354 kts | 352° |
| 2026-05-07 20:44 | 59.63500 | 5.85183 | 14097 ft | 353 kts | 352° |
| 2026-05-07 20:44 | 59.65936 | 5.84783 | 13639 ft | 350 kts | 352° |
| 2026-05-07 20:44 | 59.68363 | 5.84383 | 13178 ft | 349 kts | 352° |
| 2026-05-07 20:45 | 59.70772 | 5.83989 | 12713 ft | 347 kts | 352° |
| 2026-05-07 20:45 | 59.73170 | 5.83592 | 12246 ft | 345 kts | 352° |
| 2026-05-07 20:45 | 59.75552 | 5.83195 | 11788 ft | 343 kts | 353° |
| 2026-05-07 20:45 | 59.77894 | 5.82805 | 11330 ft | 341 kts | 353° |
| 2026-05-07 20:46 | 59.80249 | 5.82414 | 10972 ft | 337 kts | 353° |
| 2026-05-07 20:46 | 59.82551 | 5.82159 | 10817 ft | 328 kts | 1° |
| 2026-05-07 20:46 | 59.84778 | 5.82818 | 10679 ft | 319 kts | 10° |
| 2026-05-07 20:46 | 59.86920 | 5.83725 | 10536 ft | 310 kts | 11° |
| 2026-05-07 20:47 | 59.88998 | 5.84605 | 10399 ft | 301 kts | 11° |
| 2026-05-07 20:47 | 59.91023 | 5.85421 | 10271 ft | 292 kts | 10° |
| 2026-05-07 20:47 | 59.92988 | 5.86182 | 10136 ft | 285 kts | 10° |
| 2026-05-07 20:47 | 59.94918 | 5.86920 | 9923 ft | 281 kts | 10° |
| 2026-05-07 20:48 | 59.96834 | 5.87656 | 9665 ft | 280 kts | 11° |
| 2026-05-07 20:48 | 59.98715 | 5.88436 | 9402 ft | 279 kts | 11° |
| 2026-05-07 20:48 | 60.00619 | 5.89156 | 9130 ft | 279 kts | 11° |
| 2026-05-07 20:48 | 60.02544 | 5.89403 | 8825 ft | 279 kts | 350° |
| 2026-05-07 20:49 | 60.04317 | 5.87973 | 8685 ft | 276 kts | 323° |
| 2026-05-07 20:49 | 60.05610 | 5.85185 | 8646 ft | 273 kts | 296° |
| 2026-05-07 20:49 | 60.06187 | 5.81687 | 8625 ft | 259 kts | 279° |
| 2026-05-07 20:49 | 60.06504 | 5.78218 | 8549 ft | 250 kts | 278° |
| 2026-05-07 20:50 | 60.06798 | 5.74704 | 7985 ft | 262 kts | 277° |
| 2026-05-07 20:50 | 60.07094 | 5.71111 | 7599 ft | 267 kts | 278° |
| 2026-05-07 20:50 | 60.07399 | 5.67454 | 7332 ft | 266 kts | 278° |
| 2026-05-07 20:50 | 60.07705 | 5.63810 | 7086 ft | 264 kts | 278° |
| 2026-05-07 20:51 | 60.08011 | 5.60188 | 6844 ft | 263 kts | 278° |
| 2026-05-07 20:51 | 60.08315 | 5.56591 | 6590 ft | 262 kts | 278° |
| 2026-05-07 20:51 | 60.08620 | 5.53006 | 6362 ft | 259 kts | 278° |
| 2026-05-07 20:51 | 60.08916 | 5.49492 | 6282 ft | 252 kts | 278° |
| 2026-05-07 20:52 | 60.09199 | 5.46130 | 6197 ft | 244 kts | 278° |
| 2026-05-07 20:52 | 60.09473 | 5.42865 | 6159 ft | 231 kts | 278° |
| 2026-05-07 20:52 | 60.09747 | 5.39771 | 6060 ft | 220 kts | 279° |
| 2026-05-07 20:52 | 60.10024 | 5.36834 | 5951 ft | 209 kts | 279° |
| 2026-05-07 20:53 | 60.10289 | 5.34004 | 5712 ft | 206 kts | 279° |
| 2026-05-07 20:53 | 60.10552 | 5.31187 | 5436 ft | 204 kts | 279° |
| 2026-05-07 20:53 | 60.11102 | 5.28617 | 5177 ft | 202 kts | 316° |
| 2026-05-07 20:53 | 60.12358 | 5.27377 | 4584 ft | 214 kts | 354° |
| 2026-05-07 20:54 | 60.13865 | 5.27124 | 3873 ft | 221 kts | 350° |
| 2026-05-07 20:54 | 60.15380 | 5.26525 | 3123 ft | 222 kts | 349° |
| 2026-05-07 20:54 | 60.16880 | 5.25994 | 2472 ft | 219 kts | 351° |
| 2026-05-07 20:54 | 60.18324 | 5.25516 | 2164 ft | 203 kts | 351° |
| 2026-05-07 20:55 | 60.19664 | 5.25069 | 1910 ft | 187 kts | 351° |
| 2026-05-07 20:55 | 60.20892 | 5.24656 | 1680 ft | 172 kts | 351° |
| 2026-05-07 20:55 | 60.22004 | 5.24283 | 1456 ft | 154 kts | 351° |
| 2026-05-07 20:55 | 60.23036 | 5.23938 | 1264 ft | 149 kts | 351° |
| 2026-05-07 20:56 | 60.24048 | 5.23599 | 1065 ft | 147 kts | 351° |
| 2026-05-07 20:56 | 60.25035 | 5.23266 | 860 ft | 143 kts | 351° |
| 2026-05-07 20:56 | 60.26017 | 5.22933 | 639 ft | 143 kts | 351° |
| 2026-05-07 20:56 | 60.26989 | 5.22628 | 452 ft | 141 kts | 351° |
| 2026-05-07 20:57 | 60.27951 | 5.22293 | 254 ft | 138 kts | 350° |
| 2026-05-07 20:57 | 60.28859 | 5.21988 | 162 ft | 126 kts | 351° |
| 2026-05-07 20:57 | 60.29591 | 5.21728 | 147 ft | 85 kts | 351° |
| 2026-05-07 20:57 | 60.29881 | 5.21628 | 156 ft | 23 kts | 350° |
| 2026-05-07 20:58 | 60.30024 | 5.21627 | 161 ft | 19 kts | 42° |
| 2026-05-07 20:58 | 60.30043 | 5.21847 | 158 ft | 14 kts | 106° |
| 2026-05-07 20:58 | 60.29966 | 5.21943 | 155 ft | 15 kts | 173° |
| 2026-05-07 20:58 | 60.29861 | 5.21969 | 151 ft | 16 kts | 172° |
| 2026-05-07 20:59 | 60.29741 | 5.22005 | 147 ft | 18 kts | 171° |
| 2026-05-07 20:59 | 60.29621 | 5.22045 | 148 ft | 17 kts | 170° |
| 2026-05-07 20:59 | 60.29504 | 5.22084 | 154 ft | 18 kts | 171° |
| 2026-05-07 20:59 | 60.29383 | 5.22125 | 158 ft | 17 kts | 170° |
| 2026-05-07 21:00 | 60.29266 | 5.22164 | 162 ft | 17 kts | 171° |
| 2026-05-07 21:00 | 60.29148 | 5.22205 | 162 ft | 17 kts | 170° |
| 2026-05-07 21:00 | 60.29034 | 5.22243 | 161 ft | 17 kts | 171° |
| 2026-05-07 21:00 | 60.28924 | 5.22280 | 161 ft | 16 kts | 170° |
| 2026-05-07 21:01 | 60.28817 | 5.22316 | 161 ft | 15 kts | 171° |
| 2026-05-07 21:01 | 60.28721 | 5.22349 | 162 ft | 11 kts | 169° |
| 2026-05-07 21:01 | 60.28695 | 5.22464 | 164 ft | 11 kts | 66° |
| 2026-05-07 21:01 | 60.28715 | 5.22608 | 167 ft | 11 kts | 80° |
| 2026-05-07 21:02 | 60.28727 | 5.22752 | 171 ft | 10 kts | 80° |
| 2026-05-07 21:02 | 60.28738 | 5.22885 | 172 ft | 6 kts | 80° |
| 2026-05-07 21:02 | 60.28740 | 5.22903 | 172 ft | 0 kts | 80° |